Mondercange, Luxembourg
Current Conditions -  °F | °C
As of 10:20 PM on Thursday 23 Oct 2014 (Local Time) from ELLX Reporting Station
Broken Clouds Broken Clouds  
Wind Chill: 48°   Ceiling: 2600
Heat Index: 48°   Visibility: 6mi
Dew Point: 46°   Wind: 2mph
Humidity: 93%   Direction: 230°SW
Pressure: 30.24"   Gusts: NA
Location:  49.53°N, 5.99°E
Report Text: ELLX 232020Z 23002KT 9999 SCT006 BKN026 09/08 Q1024 NOSIG
Loading
Personal Weather Stations






























Interactive Weather Map
Tropical Storm Tracking
New forecast layout! Learn more

10-Day Weather Forecast

Advertisements
Track Severe Weather on mobile